Time;durP1;ratioP1;P1;durP2;ratioP2;P2;SDS_P1;SDS_P2;PMS_P1;PMS_P2;Temp;Humidity;BMP_temperature;BMP_pressure;BME280_temperature;BME280_humidity;BME280_pressure;Samples;Min_cycle;Max_cycle;Signal;HPM_P1;HPM_P2
2022/11/26 00:00:41;;;;;;;21.42;18.95;;;10.10;99.90;;;;;;5017126;28;20655;-77
2022/11/26 00:03:09;;;;;;;18.42;16.52;;;10.10;99.90;;;;;;5020802;28;20226;-77
2022/11/26 00:05:36;;;;;;;23.60;16.95;;;10.10;99.90;;;;;;5022309;28;20221;-77
2022/11/26 00:08:13;;;;;;;16.77;15.02;;;10.10;99.90;;;;;;5022908;28;20600;-77
2022/11/26 00:10:40;;;;;;;19.15;16.95;;;10.10;99.90;;;;;;5016046;28;20543;-82
2022/11/26 00:13:16;;;;;;;17.98;15.30;;;10.10;99.90;;;;;;5026382;28;20679;-80
2022/11/26 00:15:46;;;;;;;20.02;17.27;;;10.10;99.90;;;;;;5020845;28;20319;-80
2022/11/26 00:18:13;;;;;;;21.98;17.15;;;10.10;99.90;;;;;;5025766;28;20217;-77
2022/11/26 00:20:41;;;;;;;22.20;19.77;;;10.10;99.90;;;;;;5041577;28;20271;-77
2022/11/26 00:23:20;;;;;;;25.92;20.65;;;10.10;99.90;;;;;;5025480;28;20248;-79
2022/11/26 00:25:50;;;;;;;22.35;18.15;;;10.10;99.90;;;;;;5028471;28;20228;-77
2022/11/26 00:28:31;;;;;;;31.38;22.17;;;10.20;99.90;;;;;;5032591;28;20659;-79
2022/11/26 00:31:00;;;;;;;27.90;21.50;;;10.10;99.90;;;;;;5033494;28;20594;-80
2022/11/26 00:33:30;;;;;;;27.73;23.67;;;10.20;99.90;;;;;;5029955;28;20221;-80
2022/11/26 00:36:01;;;;;;;28.92;24.02;;;10.10;99.90;;;;;;5028692;28;20232;-80
2022/11/26 00:38:32;;;;;;;22.02;18.52;;;10.10;99.90;;;;;;5015372;28;20225;-77
2022/11/26 00:41:02;;;;;;;22.15;18.40;;;10.20;99.90;;;;;;5025344;28;20311;-78
2022/11/26 00:43:29;;;;;;;26.40;23.38;;;10.20;99.90;;;;;;5028276;28;20237;-77
2022/11/26 00:45:55;;;;;;;28.25;23.80;;;10.20;99.90;;;;;;5032830;28;20283;-79
2022/11/26 00:48:26;;;;;;;36.90;28.55;;;10.20;99.90;;;;;;5034932;28;20694;-80
2022/11/26 00:50:53;;;;;;;30.10;21.27;;;10.20;99.90;;;;;;5027422;28;20221;-77
2022/11/26 00:53:25;;;;;;;22.08;18.02;;;10.20;99.90;;;;;;5026541;28;20237;-79
2022/11/26 00:55:59;;;;;;;27.90;20.42;;;10.20;99.90;;;;;;5014873;28;20243;-79
2022/11/26 00:58:28;;;;;;;25.40;19.33;;;10.20;99.90;;;;;;5021053;28;20817;-78
2022/11/26 01:00:58;;;;;;;22.70;18.05;;;10.20;99.90;;;;;;5024662;28;20229;-79
2022/11/26 01:03:26;;;;;;;37.65;28.77;;;10.20;99.90;;;;;;5030503;28;20321;-77
2022/11/26 01:05:56;;;;;;;28.27;21.30;;;10.20;99.90;;;;;;5027415;28;20221;-77
2022/11/26 01:08:31;;;;;;;32.45;24.10;;;10.20;99.90;;;;;;5024859;28;20247;-79
2022/11/26 01:11:00;;;;;;;29.98;22.77;;;10.20;99.90;;;;;;5022469;28;20231;-76
2022/11/26 01:13:28;;;;;;;34.88;25.52;;;10.20;99.90;;;;;;5031916;28;20217;-78
2022/11/26 01:15:55;;;;;;;27.27;20.02;;;10.20;99.90;;;;;;5027837;28;20308;-78
2022/11/26 01:18:36;;;;;;;47.75;31.58;;;10.20;99.90;;;;;;5033725;28;20225;-78
2022/11/26 01:21:03;;;;;;;31.50;21.98;;;10.20;99.90;;;;;;5020762;28;20283;-76
2022/11/26 01:23:30;;;;;;;32.72;19.27;;;10.20;99.90;;;;;;5022666;28;20221;-78
2022/11/26 01:25:59;;;;;;;28.85;21.52;;;10.20;99.90;;;;;;5024787;28;20539;-80
2022/11/26 01:28:25;;;;;;;28.90;23.77;;;10.20;99.90;;;;;;5019754;28;20226;-76
2022/11/26 01:30:52;;;;;;;36.78;24.88;;;10.20;99.90;;;;;;5026692;28;20221;-76
2022/11/26 01:33:19;;;;;;;30.25;23.15;;;10.20;99.90;;;;;;5029352;28;20228;-76
2022/11/26 01:35:51;;;;;;;37.78;22.50;;;10.20;99.90;;;;;;5020537;28;20230;-77
2022/11/26 01:38:19;;;;;;;38.40;25.38;;;10.20;99.90;;;;;;5020561;28;20218;-78
2022/11/26 01:40:54;;;;;;;76.60;51.15;;;10.20;99.90;;;;;;5032292;28;20252;-76
2022/11/26 01:43:30;;;;;;;87.55;58.83;;;10.20;99.90;;;;;;5018743;28;20593;-78
2022/11/26 01:46:02;;;;;;;74.97;48.13;;;10.20;99.90;;;;;;5024758;28;20221;-77
2022/11/26 01:48:31;;;;;;;54.70;40.72;;;10.20;99.90;;;;;;5020666;28;20233;-77
2022/11/26 01:51:06;;;;;;;52.22;35.97;;;10.20;99.90;;;;;;5023725;28;20240;-77
2022/11/26 01:53:39;;;;;;;36.63;26.88;;;10.20;99.90;;;;;;5032496;28;20246;-76
2022/11/26 01:56:15;;;;;;;37.58;25.90;;;10.20;99.90;;;;;;5016943;28;20236;-76
2022/11/26 01:58:47;;;;;;;33.20;24.05;;;10.20;99.90;;;;;;5018957;28;20282;-77
2022/11/26 02:01:15;;;;;;;73.65;52.33;;;10.20;99.90;;;;;;5018585;28;20248;-75
2022/11/26 02:03:47;;;;;;;42.03;29.17;;;10.20;99.90;;;;;;5030967;28;20280;-76
2022/11/26 02:06:19;;;;;;;35.42;23.70;;;10.20;99.90;;;;;;5018770;28;20230;-77
2022/11/26 02:08:47;;;;;;;35.67;24.63;;;10.20;99.90;;;;;;5029359;28;20232;-78
2022/11/26 02:11:21;;;;;;;41.78;28.92;;;10.20;99.90;;;;;;5023654;28;20225;-79
2022/11/26 02:13:53;;;;;;;42.55;31.50;;;10.20;99.90;;;;;;5018946;28;20227;-76
2022/11/26 02:16:48;;;;;;;50.47;31.55;;;10.20;99.90;;;;;;5027542;28;20260;-76
2022/11/26 02:19:44;;;;;;;52.03;33.78;;;10.30;99.90;;;;;;5007248;28;20272;-78
2022/11/26 02:22:24;;;;;;;59.22;40.25;;;10.20;99.90;;;;;;5013457;28;20231;-78
2022/11/26 02:25:00;;;;;;;138.63;97.20;;;10.20;99.90;;;;;;5025828;28;20300;-78
2022/11/26 02:28:04;;;;;;;60.83;43.30;;;10.20;99.90;;;;;;5022084;28;20225;-77
2022/11/26 02:30:37;;;;;;;45.00;30.63;;;10.20;99.90;;;;;;5018833;28;20280;-78
2022/11/26 02:33:09;;;;;;;87.60;56.95;;;10.20;99.90;;;;;;5030374;28;20244;-76
2022/11/26 02:35:42;;;;;;;74.93;49.80;;;10.20;99.90;;;;;;5021997;28;20218;-77
2022/11/26 02:38:19;;;;;;;61.60;38.80;;;10.30;99.90;;;;;;5024434;28;20292;-77
2022/11/26 02:40:46;;;;;;;67.10;44.58;;;10.30;99.90;;;;;;5030157;28;20224;-76
2022/11/26 02:43:17;;;;;;;85.35;57.58;;;10.30;99.90;;;;;;5021222;28;20222;-76
2022/11/26 02:45:50;;;;;;;55.85;39.72;;;10.30;99.90;;;;;;5023855;28;20221;-77
2022/11/26 02:48:21;;;;;;;50.05;35.25;;;10.30;99.90;;;;;;5022587;28;20225;-78
2022/11/26 02:50:53;;;;;;;58.25;39.28;;;10.30;99.90;;;;;;5020022;28;20236;-78
2022/11/26 02:53:26;;;;;;;56.25;37.90;;;10.30;99.90;;;;;;5023763;28;20230;-77
2022/11/26 02:56:01;;;;;;;103.47;65.63;;;10.30;99.90;;;;;;5026803;28;20241;-77
2022/11/26 02:58:29;;;;;;;66.43;43.63;;;10.30;99.90;;;;;;5007034;28;20222;-77
2022/11/26 03:01:07;;;;;;;60.40;38.75;;;10.30;99.90;;;;;;5030524;28;20229;-77
2022/11/26 03:03:45;;;;;;;65.68;42.13;;;10.30;99.90;;;;;;5031103;28;20636;-77
2022/11/26 03:06:14;;;;;;;60.20;37.72;;;10.30;99.90;;;;;;5033271;28;20680;-77
2022/11/26 03:08:44;;;;;;;45.85;29.52;;;10.30;99.90;;;;;;5031878;28;20682;-78
2022/11/26 03:11:12;;;;;;;40.83;29.13;;;10.30;99.90;;;;;;5033189;28;20251;-79
2022/11/26 03:13:39;;;;;;;36.35;23.65;;;10.30;99.90;;;;;;5033237;28;20221;-78
2022/11/26 03:16:09;;;;;;;51.58;36.50;;;10.30;99.90;;;;;;5033097;28;20225;-80
2022/11/26 03:18:36;;;;;;;69.57;50.08;;;10.30;99.90;;;;;;5021627;28;20225;-78
2022/11/26 03:21:04;;;;;;;178.80;114.32;;;10.30;99.90;;;;;;5033433;28;20264;-80
2022/11/26 03:23:31;;;;;;;77.55;51.72;;;10.30;99.90;;;;;;5033528;28;20229;-79
2022/11/26 03:25:58;;;;;;;64.68;44.92;;;10.30;99.90;;;;;;5032370;28;20233;-79
2022/11/26 03:28:25;;;;;;;59.58;42.72;;;10.30;99.90;;;;;;5023772;28;20239;-79
2022/11/26 03:30:53;;;;;;;69.65;44.55;;;10.30;99.90;;;;;;5013027;28;20228;-77
2022/11/26 03:33:22;;;;;;;62.08;44.42;;;10.30;99.90;;;;;;5013123;28;20229;-78
2022/11/26 03:35:50;;;;;;;48.28;33.38;;;10.40;99.90;;;;;;5001726;28;20537;-77
2022/11/26 03:38:17;;;;;;;52.67;37.20;;;10.40;99.90;;;;;;5012940;28;20221;-78
2022/11/26 03:40:50;;;;;;;53.10;34.92;;;10.30;99.90;;;;;;5030711;28;20229;-77
2022/11/26 03:43:17;;;;;;;42.10;29.88;;;10.40;99.90;;;;;;5032517;28;20229;-77
2022/11/26 03:45:44;;;;;;;57.28;37.40;;;10.40;99.90;;;;;;5036073;28;20232;-78
2022/11/26 03:48:11;;;;;;;46.67;32.03;;;10.40;99.90;;;;;;5036831;28;20279;-79
2022/11/26 03:50:41;;;;;;;39.03;29.95;;;10.40;99.90;;;;;;5046512;28;20231;-78
2022/11/26 03:53:08;;;;;;;46.65;29.20;;;10.40;99.90;;;;;;5056530;28;20220;-76
2022/11/26 03:55:35;;;;;;;44.75;31.40;;;10.40;99.90;;;;;;5056539;28;20560;-78
2022/11/26 03:58:02;;;;;;;61.42;43.90;;;10.40;99.90;;;;;;5056346;28;20241;-78
2022/11/26 04:00:34;;;;;;;59.72;41.25;;;10.40;99.90;;;;;;5056538;28;20327;-80
2022/11/26 04:03:01;;;;;;;48.63;33.58;;;10.40;99.90;;;;;;5056081;28;20225;-78
2022/11/26 04:05:28;;;;;;;52.75;29.60;;;10.40;99.90;;;;;;5056404;28;20221;-78
2022/11/26 04:07:57;;;;;;;51.10;34.90;;;10.50;99.90;;;;;;5055777;28;20228;-80
2022/11/26 04:10:28;;;;;;;58.67;40.15;;;10.50;99.90;;;;;;5055608;28;20232;-78
2022/11/26 04:12:57;;;;;;;59.10;38.20;;;10.40;99.90;;;;;;5054566;28;20225;-76
2022/11/26 04:15:24;;;;;;;48.42;31.45;;;10.50;99.90;;;;;;5052938;28;20248;-77
2022/11/26 04:17:54;;;;;;;45.60;28.33;;;10.50;99.90;;;;;;5053921;28;20228;-77
2022/11/26 04:20:21;;;;;;;39.65;26.15;;;10.50;99.90;;;;;;5054936;28;20225;-78
2022/11/26 04:22:48;;;;;;;86.15;61.38;;;10.50;99.90;;;;;;5055071;28;20256;-77
2022/11/26 04:25:16;;;;;;;90.57;61.05;;;10.50;99.90;;;;;;5056103;28;20224;-77
2022/11/26 04:27:43;;;;;;;65.57;43.67;;;10.50;99.90;;;;;;5056037;28;20286;-76
2022/11/26 04:30:11;;;;;;;64.82;44.15;;;10.50;99.90;;;;;;5055003;28;20236;-76
2022/11/26 04:32:38;;;;;;;64.93;44.92;;;10.50;99.90;;;;;;5055947;28;20221;-75
2022/11/26 04:35:07;;;;;;;51.50;35.90;;;10.50;99.90;;;;;;5055096;28;20229;-75
2022/11/26 04:37:34;;;;;;;70.15;45.80;;;10.50;99.90;;;;;;5055618;28;20213;-76
2022/11/26 04:40:02;;;;;;;49.83;31.85;;;10.50;99.90;;;;;;5053841;28;20235;-77
2022/11/26 04:42:30;;;;;;;47.22;31.95;;;10.50;99.90;;;;;;5053725;28;20228;-77
2022/11/26 04:44:57;;;;;;;45.08;29.70;;;10.50;99.90;;;;;;5052863;28;20237;-77
2022/11/26 04:47:24;;;;;;;42.08;28.30;;;10.50;99.90;;;;;;5053805;28;20221;-78
2022/11/26 04:49:51;;;;;;;53.67;35.35;;;10.50;99.90;;;;;;5049173;28;20234;-78
2022/11/26 04:52:19;;;;;;;56.13;35.25;;;10.50;99.90;;;;;;5033328;28;20225;-79
2022/11/26 04:54:46;;;;;;;46.40;32.15;;;10.50;99.90;;;;;;5032958;28;20233;-77
2022/11/26 04:57:17;;;;;;;37.30;26.90;;;10.50;99.90;;;;;;5032780;28;20217;-79
2022/11/26 04:59:45;;;;;;;59.35;39.72;;;10.50;99.90;;;;;;5033549;28;20694;-79
2022/11/26 05:02:12;;;;;;;75.05;49.88;;;10.50;99.90;;;;;;5032384;28;20225;-78
2022/11/26 05:04:39;;;;;;;61.85;41.22;;;10.50;99.90;;;;;;5033548;28;20706;-79
2022/11/26 05:07:06;;;;;;;60.15;39.35;;;10.50;99.90;;;;;;5032220;28;20225;-79
2022/11/26 05:09:34;;;;;;;46.67;30.52;;;10.50;99.90;;;;;;5035380;28;20229;-77
2022/11/26 05:12:01;;;;;;;37.40;25.48;;;10.50;99.90;;;;;;5026138;28;20275;-77
2022/11/26 05:14:28;;;;;;;35.95;22.20;;;10.60;99.90;;;;;;5035288;28;20217;-77
2022/11/26 05:16:56;;;;;;;31.55;24.30;;;10.50;99.90;;;;;;5034904;28;20217;-79
2022/11/26 05:19:23;;;;;;;34.88;23.85;;;10.50;99.90;;;;;;5035034;28;20225;-77
2022/11/26 05:21:51;;;;;;;35.50;26.70;;;10.50;99.90;;;;;;5035131;28;20221;-79
2022/11/26 05:24:18;;;;;;;60.65;40.75;;;10.50;99.90;;;;;;5034249;28;20221;-79
2022/11/26 05:26:44;;;;;;;83.70;56.00;;;10.50;99.90;;;;;;5035133;28;20247;-77
2022/11/26 05:29:12;;;;;;;36.80;25.63;;;10.50;99.90;;;;;;5033983;28;20251;-78
2022/11/26 05:31:39;;;;;;;44.60;32.47;;;10.50;99.90;;;;;;5027031;28;20221;-78
2022/11/26 05:34:07;;;;;;;40.80;28.60;;;10.60;99.90;;;;;;5033918;28;20260;-77
2022/11/26 05:36:35;;;;;;;36.50;26.40;;;10.60;99.90;;;;;;5024757;28;20659;-77
2022/11/26 05:39:02;;;;;;;37.13;26.08;;;10.60;99.90;;;;;;5032607;28;20264;-78
2022/11/26 05:41:28;;;;;;;37.05;28.50;;;10.50;99.90;;;;;;5033672;28;20225;-78
2022/11/26 05:43:59;;;;;;;53.63;37.92;;;10.60;99.90;;;;;;5034508;28;20253;-78
2022/11/26 05:46:26;;;;;;;54.08;34.95;;;10.50;99.90;;;;;;5033986;28;20237;-79
2022/11/26 05:48:55;;;;;;;35.33;26.13;;;10.60;99.90;;;;;;5034443;28;20252;-79
2022/11/26 05:51:24;;;;;;;36.88;25.23;;;10.60;99.90;;;;;;5033809;28;20671;-79
2022/11/26 05:53:51;;;;;;;55.03;35.03;;;10.60;99.90;;;;;;5034690;28;20300;-79
2022/11/26 05:56:18;;;;;;;35.72;26.10;;;10.60;99.90;;;;;;5034032;28;20253;-77
2022/11/26 05:58:47;;;;;;;47.95;34.67;;;10.50;99.90;;;;;;5033925;28;20229;-76
2022/11/26 06:01:14;;;;;;;43.55;23.15;;;10.60;99.90;;;;;;5033756;28;20229;-76
2022/11/26 06:03:41;;;;;;;39.40;30.80;;;10.60;99.90;;;;;;5034447;28;20272;-76
2022/11/26 06:06:10;;;;;;;49.22;34.58;;;10.50;99.90;;;;;;5033438;28;20264;-78
2022/11/26 06:08:38;;;;;;;41.00;28.67;;;10.60;99.90;;;;;;5032837;28;20236;-79
2022/11/26 06:11:06;;;;;;;40.17;28.38;;;10.60;99.90;;;;;;5033128;28;21172;-77
2022/11/26 06:13:33;;;;;;;30.90;18.17;;;10.50;99.90;;;;;;5034213;28;20225;-78
2022/11/26 06:16:00;;;;;;;56.17;40.75;;;10.60;99.90;;;;;;5034056;28;20229;-79
2022/11/26 06:18:29;;;;;;;44.13;29.23;;;10.50;99.90;;;;;;5031991;28;20670;-78
2022/11/26 06:21:00;;;;;;;32.67;24.13;;;10.50;99.90;;;;;;5034147;28;20236;-79
2022/11/26 06:23:27;;;;;;;28.75;20.00;;;10.50;99.90;;;;;;5033043;28;20253;-78
2022/11/26 06:26:09;;;;;;;31.05;21.52;;;10.60;99.90;;;;;;5033988;28;20217;-79
2022/11/26 06:28:36;;;;;;;28.13;20.55;;;10.60;99.90;;;;;;5033779;28;20225;-78
2022/11/26 06:31:03;;;;;;;25.08;18.52;;;10.60;99.90;;;;;;5034118;28;20249;-79
2022/11/26 06:33:30;;;;;;;29.13;16.60;;;10.60;99.90;;;;;;5033636;28;20229;-79
2022/11/26 06:36:00;;;;;;;22.85;15.88;;;10.60;99.90;;;;;;5033837;28;20229;-78
2022/11/26 06:38:27;;;;;;;41.63;30.70;;;10.60;99.90;;;;;;5032862;28;20229;-78
2022/11/26 06:41:01;;;;;;;28.27;20.77;;;10.60;99.90;;;;;;5023476;28;20229;-78
2022/11/26 06:43:29;;;;;;;23.35;17.33;;;10.60;99.90;;;;;;5021677;28;20239;-78
2022/11/26 06:46:01;;;;;;;23.50;17.20;;;10.60;99.90;;;;;;5032515;28;20221;-77
2022/11/26 06:48:28;;;;;;;21.88;16.88;;;10.60;99.90;;;;;;5032993;28;20229;-78
2022/11/26 06:50:55;;;;;;;22.23;14.25;;;10.60;99.90;;;;;;5033144;28;20307;-77
2022/11/26 06:53:22;;;;;;;22.23;15.10;;;10.60;99.90;;;;;;5032707;28;20575;-78
2022/11/26 06:55:49;;;;;;;39.05;25.05;;;10.60;99.90;;;;;;5033094;28;20229;-78
2022/11/26 06:58:17;;;;;;;30.88;20.55;;;10.60;99.90;;;;;;5033384;28;20766;-75
2022/11/26 07:00:47;;;;;;;23.65;17.17;;;10.60;99.90;;;;;;5022555;28;20244;-77
2022/11/26 07:03:18;;;;;;;28.92;17.23;;;10.60;99.90;;;;;;5032977;28;20592;-77
2022/11/26 07:05:45;;;;;;;36.67;26.50;;;10.60;99.90;;;;;;5021373;28;20352;-76
2022/11/26 07:08:12;;;;;;;22.50;17.25;;;10.60;99.90;;;;;;5032770;28;20226;-78
2022/11/26 07:10:39;;;;;;;51.55;33.97;;;10.60;99.90;;;;;;5021857;28;20392;-78
2022/11/26 07:13:09;;;;;;;37.05;24.55;;;10.60;99.90;;;;;;5033050;28;20232;-77
2022/11/26 07:15:44;;;;;;;31.73;23.13;;;10.60;99.90;;;;;;5032587;28;20229;-79
2022/11/26 07:18:20;;;;;;;32.50;25.05;;;10.70;99.90;;;;;;5033636;28;20337;-78
2022/11/26 07:20:47;;;;;;;30.08;22.67;;;10.60;99.90;;;;;;5032203;28;20233;-77
2022/11/26 07:23:14;;;;;;;55.78;35.70;;;10.60;99.90;;;;;;5032937;28;20257;-76
2022/11/26 07:25:44;;;;;;;34.17;21.95;;;10.60;99.90;;;;;;5032075;28;20607;-79
2022/11/26 07:28:11;;;;;;;28.45;17.27;;;10.60;99.90;;;;;;5032855;28;20225;-79
2022/11/26 07:30:39;;;;;;;29.58;19.25;;;10.60;99.90;;;;;;5022655;28;20302;-77
2022/11/26 07:33:06;;;;;;;25.83;16.23;;;10.60;99.90;;;;;;5031737;28;20225;-78
2022/11/26 07:35:37;;;;;;;42.85;27.92;;;10.60;99.90;;;;;;5032027;28;20256;-79
2022/11/26 07:38:04;;;;;;;40.55;22.92;;;10.60;99.90;;;;;;5032243;28;20271;-79
2022/11/26 07:40:42;;;;;;;30.13;19.25;;;10.70;99.90;;;;;;5032518;28;20679;-79
2022/11/26 07:43:10;;;;;;;22.40;15.20;;;10.70;99.90;;;;;;5022171;28;20287;-78
2022/11/26 07:45:38;;;;;;;24.08;15.30;;;10.60;99.90;;;;;;5032290;28;20235;-78
2022/11/26 07:48:09;;;;;;;25.95;17.75;;;10.60;99.90;;;;;;5032192;28;20222;-79
2022/11/26 07:50:36;;;;;;;25.92;16.10;;;10.60;99.90;;;;;;5032890;28;20245;-77
2022/11/26 07:53:06;;;;;;;26.27;16.20;;;10.60;99.90;;;;;;5032529;28;20240;-78
2022/11/26 07:55:38;;;;;;;36.83;26.77;;;10.60;99.90;;;;;;5032544;28;20229;-77
2022/11/26 07:58:05;;;;;;;40.00;25.30;;;10.70;99.90;;;;;;5032094;28;20225;-77
2022/11/26 08:00:37;;;;;;;24.50;16.60;;;10.70;99.90;;;;;;5032494;28;20679;-77
2022/11/26 08:03:06;;;;;;;22.05;15.93;;;10.60;99.90;;;;;;5021776;28;20230;-77
2022/11/26 08:05:33;;;;;;;24.55;16.02;;;10.60;99.90;;;;;;5031384;28;20237;-79
2022/11/26 08:08:03;;;;;;;24.35;16.13;;;10.70;99.90;;;;;;5031948;28;20240;-78
2022/11/26 08:10:33;;;;;;;26.27;15.82;;;10.70;99.90;;;;;;5032891;28;20221;-79
2022/11/26 08:13:04;;;;;;;21.13;14.93;;;10.70;99.90;;;;;;5032206;28;20233;-77
2022/11/26 08:18:23;;;;;;;25.33;14.75;;;10.70;99.90;;;;;;5021802;28;20221;-77
2022/11/26 08:20:55;;;;;;;23.42;14.55;;;10.70;99.90;;;;;;5032296;28;20221;-78
2022/11/26 08:23:23;;;;;;;18.80;11.90;;;10.70;99.90;;;;;;5031842;28;20237;-77
2022/11/26 08:25:53;;;;;;;17.40;12.77;;;10.70;99.90;;;;;;5032085;28;20222;-77
2022/11/26 08:28:20;;;;;;;18.08;13.77;;;10.70;99.90;;;;;;5032027;28;20299;-79
2022/11/26 08:31:00;;;;;;;24.02;13.50;;;10.70;99.90;;;;;;5033831;28;20225;-78
2022/11/26 08:33:28;;;;;;;21.50;15.25;;;10.70;99.90;;;;;;5035491;28;20228;-78
2022/11/26 08:35:55;;;;;;;19.95;12.43;;;10.80;99.90;;;;;;5035841;28;20287;-77
2022/11/26 08:38:27;;;;;;;21.90;14.05;;;10.80;99.90;;;;;;5035305;28;20225;-77
2022/11/26 08:40:55;;;;;;;16.05;12.20;;;10.70;99.90;;;;;;5035968;28;20221;-77
2022/11/26 08:43:22;;;;;;;18.30;13.25;;;10.80;99.90;;;;;;5035238;28;20289;-77
2022/11/26 08:46:10;;;;;;;19.83;11.50;;;10.80;99.90;;;;;;5036067;28;20221;-77
2022/11/26 08:48:40;;;;;;;18.35;11.82;;;10.80;99.90;;;;;;5024995;28;20252;-79
2022/11/26 08:51:11;;;;;;;17.13;13.63;;;10.80;99.90;;;;;;5037411;28;20225;-79
2022/11/26 08:53:39;;;;;;;15.23;11.85;;;10.80;99.90;;;;;;5035375;28;20221;-77
2022/11/26 08:56:08;;;;;;;20.73;14.15;;;10.80;99.90;;;;;;5035988;28;20291;-78
2022/11/26 08:58:37;;;;;;;30.48;19.13;;;10.80;99.90;;;;;;5034905;28;20232;-80
2022/11/26 09:01:09;;;;;;;23.73;14.75;;;10.80;99.90;;;;;;5035606;28;20225;-79
2022/11/26 09:03:38;;;;;;;20.10;13.88;;;10.80;99.90;;;;;;5034402;28;20284;-79
2022/11/26 09:06:08;;;;;;;22.30;14.10;;;10.80;99.90;;;;;;5036639;28;20229;-78
2022/11/26 09:11:30;;;;;;;26.15;16.02;;;10.80;99.90;;;;;;5033026;28;20275;-78
2022/11/26 09:14:00;;;;;;;26.60;12.65;;;10.80;99.90;;;;;;5037153;28;20237;-78
2022/11/26 09:16:32;;;;;;;20.65;13.20;;;10.90;99.90;;;;;;5038560;28;20308;-78
2022/11/26 09:19:04;;;;;;;16.25;12.90;;;10.90;99.90;;;;;;5042261;28;20229;-77
2022/11/26 09:21:40;;;;;;;17.88;12.15;;;10.90;99.90;;;;;;5034567;28;20229;-78
2022/11/26 09:24:08;;;;;;;17.45;12.70;;;10.90;99.90;;;;;;5039992;28;20233;-79
2022/11/26 09:26:38;;;;;;;16.77;11.63;;;10.90;99.90;;;;;;5049920;28;20213;-81
2022/11/26 09:29:05;;;;;;;24.48;13.38;;;11.00;99.90;;;;;;5048559;28;20244;-80
2022/11/26 09:31:33;;;;;;;17.65;11.75;;;11.00;99.90;;;;;;5043671;28;20225;-78
2022/11/26 09:34:05;;;;;;;17.00;11.25;;;11.00;99.90;;;;;;5036035;28;20232;-78
2022/11/26 09:36:40;;;;;;;14.13;10.35;;;11.00;99.90;;;;;;5051049;28;20236;-79
2022/11/26 09:39:25;;;;;;;12.80;10.55;;;11.00;99.90;;;;;;5046313;28;20239;-79
2022/11/26 09:42:06;;;;;;;14.32;11.10;;;11.00;99.90;;;;;;5047797;28;20551;-77
2022/11/26 09:45:04;;;;;;;15.75;12.13;;;11.10;99.90;;;;;;5049994;28;20229;-77
2022/11/26 09:47:37;;;;;;;23.88;12.48;;;11.10;99.90;;;;;;5040886;28;20244;-77
2022/11/26 09:50:16;;;;;;;15.75;11.20;;;11.10;99.90;;;;;;5050756;28;20236;-76
2022/11/26 09:52:53;;;;;;;21.55;12.73;;;11.10;99.90;;;;;;5044958;28;20248;-77
2022/11/26 09:55:22;;;;;;;21.98;12.75;;;11.10;99.90;;;;;;5041405;28;20227;-78
2022/11/26 09:58:00;;;;;;;13.65;10.55;;;11.00;99.90;;;;;;5042175;28;20663;-78
2022/11/26 10:00:29;;;;;;;32.50;17.17;;;11.10;99.90;;;;;;5037022;28;20275;-79
2022/11/26 10:02:58;;;;;;;18.42;12.02;;;11.00;99.90;;;;;;5048305;28;20232;-78
2022/11/26 10:05:42;;;;;;;22.13;12.07;;;11.00;99.90;;;;;;5051994;28;20225;-79
2022/11/26 10:08:36;;;;;;;15.00;10.85;;;11.00;99.90;;;;;;5049460;28;20221;-78
2022/11/26 10:11:11;;;;;;;25.95;11.27;;;11.00;99.90;;;;;;5043807;28;20256;-78
2022/11/26 10:14:05;;;;;;;15.02;9.82;;;11.00;99.90;;;;;;5036196;28;20228;-77
2022/11/26 10:16:40;;;;;;;13.88;9.82;;;11.00;99.90;;;;;;5047890;28;20221;-76
2022/11/26 10:19:17;;;;;;;12.82;9.75;;;11.00;99.90;;;;;;5042881;28;20256;-78
2022/11/26 10:21:48;;;;;;;16.35;10.50;;;10.90;99.90;;;;;;5044503;28;20228;-80
2022/11/26 10:24:26;;;;;;;20.42;11.85;;;10.90;99.90;;;;;;5035693;28;20239;-78
2022/11/26 10:26:56;;;;;;;16.10;10.20;;;11.00;99.90;;;;;;5024068;28;20764;-78
2022/11/26 10:29:26;;;;;;;11.98;9.13;;;11.00;99.90;;;;;;5033594;28;20683;-79
2022/11/26 10:31:59;;;;;;;27.83;9.05;;;11.00;99.90;;;;;;5033531;28;20225;-79
2022/11/26 10:34:36;;;;;;;16.48;10.40;;;11.00;99.90;;;;;;5023446;28;20233;-78
2022/11/26 10:37:06;;;;;;;14.73;8.05;;;10.90;99.90;;;;;;5032812;28;20290;-77
2022/11/26 10:39:37;;;;;;;14.57;8.50;;;11.00;99.90;;;;;;5034219;28;20222;-77
2022/11/26 10:42:09;;;;;;;16.67;9.60;;;10.90;99.90;;;;;;5033518;28;20241;-76
2022/11/26 10:44:39;;;;;;;15.55;9.27;;;11.00;99.90;;;;;;5034794;28;20568;-77
2022/11/26 10:47:36;;;;;;;23.27;14.00;;;11.00;99.90;;;;;;5034393;28;20213;-77
2022/11/26 10:50:34;;;;;;;14.63;8.00;;;11.00;99.90;;;;;;4954484;28;20316;-78
2022/11/26 10:53:26;;;;;;;12.27;6.88;;;10.90;99.90;;;;;;5030803;28;20229;-77
2022/11/26 10:55:59;;;;;;;13.27;7.47;;;10.90;99.90;;;;;;5033801;28;20236;-79
2022/11/26 10:58:33;;;;;;;10.63;7.00;;;10.90;99.90;;;;;;5034016;28;20239;-79
2022/11/26 11:01:02;;;;;;;14.98;8.30;;;10.90;99.90;;;;;;5034347;28;20279;-78
2022/11/26 11:03:33;;;;;;;13.07;8.02;;;10.90;99.90;;;;;;5033535;28;20221;-79
2022/11/26 11:06:27;;;;;;;21.25;11.65;;;10.90;99.90;;;;;;5033099;28;20232;-78
2022/11/26 11:08:56;;;;;;;22.10;10.95;;;10.90;99.90;;;;;;5032904;28;20492;-77
2022/11/26 11:11:35;;;;;;;13.98;9.82;;;10.90;99.90;;;;;;5033655;28;20276;-79
2022/11/26 11:14:04;;;;;;;18.15;12.43;;;10.90;99.90;;;;;;5033355;28;20224;-78
2022/11/26 11:16:44;;;;;;;18.13;11.35;;;10.90;99.90;;;;;;5033878;28;20823;-79
2022/11/26 11:19:25;;;;;;;15.73;10.23;;;10.90;99.90;;;;;;5033747;28;20225;-76
2022/11/26 11:22:04;;;;;;;18.77;11.57;;;10.90;99.90;;;;;;5031745;28;20218;-76
2022/11/26 11:24:32;;;;;;;19.98;12.68;;;10.90;99.90;;;;;;5033528;28;20574;-77
2022/11/26 11:27:01;;;;;;;16.55;9.63;;;10.90;99.90;;;;;;5024052;28;20229;-78
2022/11/26 11:29:34;;;;;;;17.55;11.20;;;10.90;99.90;;;;;;5033475;28;20878;-77
2022/11/26 11:32:03;;;;;;;18.75;14.15;;;10.90;99.90;;;;;;5032945;28;20225;-77
2022/11/26 11:34:41;;;;;;;16.65;10.57;;;10.90;99.90;;;;;;5033967;28;20300;-77
2022/11/26 11:37:20;;;;;;;13.60;9.80;;;10.90;99.90;;;;;;5028948;28;20231;-77
2022/11/26 11:40:05;;;;;;;9.27;7.88;;;10.90;99.90;;;;;;5032957;28;20241;-77
2022/11/26 11:42:33;;;;;;;10.00;7.97;;;10.90;99.90;;;;;;5033084;28;20233;-78
2022/11/26 11:45:19;;;;;;;12.70;8.90;;;10.90;99.90;;;;;;5032265;28;20225;-79
2022/11/26 11:47:48;;;;;;;12.90;10.85;;;10.90;99.90;;;;;;5022110;28;20724;-77
2022/11/26 11:50:25;;;;;;;12.70;10.27;;;10.90;99.90;;;;;;5020930;28;20256;-76
2022/11/26 11:53:25;;;;;;;14.02;10.75;;;10.90;99.90;;;;;;5030367;28;20248;-77
2022/11/26 11:56:06;;;;;;;16.63;10.52;;;10.90;99.90;;;;;;5032037;28;20221;-78
2022/11/26 11:59:21;;;;;;;15.13;9.55;;;10.90;99.90;;;;;;5032224;28;20220;-78
2022/11/26 12:02:08;;;;;;;11.63;7.38;;;10.90;99.90;;;;;;5005554;28;20235;-77
2022/11/26 12:05:05;;;;;;;14.90;9.85;;;10.90;99.90;;;;;;5032077;28;20225;-77
2022/11/26 12:07:40;;;;;;;12.82;9.57;;;10.90;99.90;;;;;;5034130;28;20226;-77
2022/11/26 12:10:22;;;;;;;12.05;8.45;;;10.90;99.90;;;;;;5036228;28;20308;-77
2022/11/26 12:12:53;;;;;;;11.52;7.82;;;10.90;99.90;;;;;;5035967;28;20260;-79
2022/11/26 12:15:28;;;;;;;12.77;8.68;;;10.90;99.90;;;;;;5036796;28;20605;-79
2022/11/26 12:18:03;;;;;;;13.57;9.30;;;11.00;99.90;;;;;;5035892;28;20220;-79
2022/11/26 12:20:34;;;;;;;16.38;10.20;;;11.00;99.90;;;;;;5027447;28;20299;-78
2022/11/26 12:23:16;;;;;;;15.10;9.52;;;11.00;99.90;;;;;;5036150;28;20228;-78
2022/11/26 12:25:47;;;;;;;18.42;9.73;;;11.00;99.90;;;;;;5035595;28;20240;-78
2022/11/26 12:28:24;;;;;;;10.48;8.55;;;11.00;99.90;;;;;;5024311;28;20256;-78
2022/11/26 12:30:57;;;;;;;14.45;8.77;;;11.00;99.90;;;;;;5035586;28;20283;-78
2022/11/26 12:37:00;;;;;;;13.15;8.05;;;11.00;99.90;;;;;;5001321;28;20221;-78
2022/11/26 12:39:36;;;;;;;10.00;7.40;;;11.00;99.90;;;;;;5036217;28;20312;-77
2022/11/26 12:42:11;;;;;;;9.95;7.55;;;11.00;99.90;;;;;;5023479;28;20276;-77
2022/11/26 12:44:44;;;;;;;12.38;8.50;;;11.00;99.90;;;;;;5035855;28;20311;-77
2022/11/26 12:47:22;;;;;;;13.20;8.95;;;11.00;99.90;;;;;;5036266;28;20230;-77
2022/11/26 12:50:02;;;;;;;14.90;8.60;;;11.00;99.90;;;;;;5027461;28;20275;-79
2022/11/26 12:52:41;;;;;;;16.75;9.82;;;11.00;99.90;;;;;;5034470;28;20281;-79
2022/11/26 12:55:19;;;;;;;15.48;9.20;;;11.00;99.90;;;;;;5035780;28;20299;-79
2022/11/26 12:57:51;;;;;;;16.85;12.00;;;11.00;99.90;;;;;;5034921;28;20752;-79
2022/11/26 13:00:20;;;;;;;22.45;12.90;;;11.00;99.90;;;;;;5035385;28;20234;-78